Time;durP1;ratioP1;P1;durP2;ratioP2;P2;SDS_P1;SDS_P2;PMS_P1;PMS_P2;Temp;Humidity;BMP_temperature;BMP_pressure;BME280_temperature;BME280_humidity;BME280_pressure;Samples;Min_cycle;Max_cycle;Signal;HPM_P1;HPM_P2
2022/06/28 07:17:07;;;;;;;9.07;2.40;;;20.80;97.00;;;;;;6103145;23;20026;-73
2022/06/28 07:19:32;;;;;;;10.13;2.17;;;20.60;97.10;;;;;;6093587;23;20018;-75
2022/06/28 07:22:08;;;;;;;11.38;1.80;;;20.70;97.10;;;;;;6069712;23;20011;-72
2022/06/28 07:25:15;;;;;;;8.38;1.85;;;20.70;95.40;;;;;;6095275;23;20425;-76
2022/06/28 07:27:41;;;;;;;10.27;2.22;;;20.90;93.50;;;;;;6013798;23;20011;-73
2022/06/28 07:30:32;;;;;;;10.60;2.05;;;21.20;96.40;;;;;;6061134;23;20010;-76
2022/06/28 07:33:17;;;;;;;7.93;1.85;;;21.50;93.70;;;;;;6095967;23;20366;-82
2022/06/28 07:35:44;;;;;;;10.95;1.80;;;21.60;92.80;;;;;;6071294;23;20042;-71
2022/06/28 07:38:17;;;;;;;10.57;2.10;;;21.50;95.40;;;;;;6071465;23;20018;-73
2022/06/28 07:40:48;;;;;;;9.13;1.63;;;21.00;93.30;;;;;;6095477;23;20330;-73
2022/06/28 07:43:14;;;;;;;15.82;2.10;;;21.00;93.00;;;;;;6071793;23;20058;-71
2022/06/28 07:54:29;;;;;;;10.18;2.42;;;20.90;92.40;;;;;;6095912;23;20045;-74
2022/06/28 07:57:17;;;;;;;11.05;2.05;;;21.10;92.80;;;;;;6096387;23;20435;-75
2022/06/28 07:59:48;;;;;;;10.90;1.80;;;21.30;90.90;;;;;;6095636;23;20097;-73
2022/06/28 08:02:19;;;;;;;7.35;1.38;;;21.50;92.40;;;;;;6094881;23;20589;-78
2022/06/28 08:08:13;;;;;;;11.90;2.03;;;21.80;88.30;;;;;;6096067;23;20022;-70
2022/06/28 08:11:10;;;;;;;8.10;1.65;;;21.80;91.00;;;;;;6097078;23;20007;-73
2022/06/28 08:14:01;;;;;;;8.02;1.73;;;22.00;87.70;;;;;;6095422;23;20019;-75
2022/06/28 08:19:59;;;;;;;9.63;1.95;;;22.40;82.10;;;;;;6082079;23;20139;-71
2022/06/28 08:26:27;;;;;;;8.83;1.90;;;22.60;84.50;;;;;;6095442;23;20330;-79
2022/06/28 09:22:00;;;;;;;10.13;1.30;;;22.90;74.90;;;;;;6014240;23;20019;-73
2022/06/28 09:25:21;;;;;;;;;;;;;;;;;;;;;
2022/06/28 09:32:02;;;;;;;8.90;1.48;;;23.60;70.60;;;;;;6008405;23;20026;-72
2022/06/28 09:40:53;;;;;;;8.75;1.48;;;23.90;73.70;;;;;;6039166;23;20011;-72
2022/06/28 09:43:18;;;;;;;;;;;23.80;80.50;;;;;;6014895;23;20082;-73
2022/06/28 09:45:52;;;;;;;7.57;1.38;;;23.70;70.10;;;;;;5968374;23;20313;-72
2022/06/28 09:48:19;;;;;;;11.27;1.55;;;23.60;77.60;;;;;;6014861;23;20082;-72
2022/06/28 09:50:46;;;;;;;8.02;1.45;;;23.70;77.80;;;;;;6014407;23;20303;-71
2022/06/28 09:53:20;;;;;;;1058.65;110.32;;;23.90;78.70;;;;;;6017913;23;20022;-71
2022/06/28 09:55:46;;;;;;;269.15;21.27;;;23.90;75.00;;;;;;5996635;23;20163;-71
2022/06/28 09:58:11;;;;;;;;;;;24.00;77.30;;;;;;6015691;23;20091;-70
2022/06/28 10:00:41;;;;;;;57.50;5.45;;;24.10;69.40;;;;;;6014629;23;19920;-71
2022/06/28 10:03:07;;;;;;;10.18;2.13;;;24.30;77.60;;;;;;6039709;23;20391;-70
2022/06/28 10:05:33;;;;;;;6.78;1.48;;;24.40;76.30;;;;;;6015044;23;20011;-70
2022/06/28 10:18:00;;;;;;;;;;;;;;;;;;;;;
2022/06/28 10:20:47;;;;;;;;;;;;;;;;;;;;;
2022/06/28 10:23:36;;;;;;;16.60;1.95;;;24.00;68.40;;;;;;6038260;23;20296;-73
2022/06/28 10:26:11;;;;;;;221.65;13.70;;;24.20;70.70;;;;;;6037980;23;20141;-72
2022/06/28 10:29:09;;;;;;;32.00;2.78;;;24.30;67.50;;;;;;6013895;23;20499;-74
2022/06/28 11:23:28;;;;;;;9.55;1.85;;;24.30;68.80;;;;;;6061639;23;20682;-75
2022/06/28 11:30:46;;;;;;;71.85;5.97;;;24.60;70.60;;;;;;6009656;23;20395;-74
2022/06/28 11:37:32;;;;;;;;;;;;;;;;;;;;;
2022/06/28 12:02:59;;;;;;;55.90;4.13;;;25.20;67.80;;;;;;6098149;23;20017;-72
2022/06/28 12:06:25;;;;;;;16.63;2.00;;;25.10;65.20;;;;;;6071878;23;20014;-72
2022/06/28 13:33:12;;;;;;;8.02;1.08;;;25.90;62.40;;;;;;6119973;23;20429;-70
2022/06/28 13:35:41;;;;;;;6.13;1.30;;;26.10;61.80;;;;;;6075559;23;20029;-71
2022/06/28 13:38:22;;;;;;;8.18;1.52;;;25.60;59.20;;;;;;6074798;23;20021;-74
2022/06/28 13:41:07;;;;;;;4.13;1.20;;;25.90;60.90;;;;;;6099653;23;20014;-77
2022/06/28 13:43:33;;;;;;;9.15;1.50;;;25.70;58.60;;;;;;6099592;23;20447;-77
2022/06/28 13:49:33;;;;;;;6.60;1.42;;;26.10;61.20;;;;;;5888421;23;20020;-74
2022/06/28 13:55:06;;;;;;;9.13;1.53;;;26.10;61.40;;;;;;6098281;23;20387;-70
2022/06/28 15:56:51;;;;;;;13.57;4.40;;;25.60;59.70;;;;;;6096751;23;20015;-73
2022/06/28 15:59:46;;;;;;;17.15;2.92;;;25.30;59.80;;;;;;6073614;23;20022;-74
2022/06/28 16:02:29;;;;;;;13.38;2.60;;;25.60;61.10;;;;;;6072011;23;20085;-78
2022/06/28 16:08:00;;;;;;;14.15;2.28;;;26.80;58.60;;;;;;6127201;23;20417;-76
2022/06/28 16:10:29;;;;;;;9.32;2.28;;;27.90;57.70;;;;;;6125742;23;20013;-75
2022/06/28 16:13:02;;;;;;;12.25;2.42;;;28.10;56.00;;;;;;6101895;23;20377;-76
2022/06/28 16:15:33;;;;;;;13.15;2.30;;;28.30;55.10;;;;;;6101812;23;20433;-74
2022/06/28 16:18:09;;;;;;;9.20;2.10;;;28.50;54.50;;;;;;6127656;23;20324;-75
2022/06/28 16:20:39;;;;;;;9.20;2.28;;;28.40;51.60;;;;;;6126065;23;20454;-75
2022/06/28 16:23:10;;;;;;;8.73;1.88;;;28.70;52.70;;;;;;6101467;23;20328;-77
2022/06/28 16:25:39;;;;;;;14.15;2.63;;;28.10;52.50;;;;;;6125240;23;20012;-76
2022/06/28 16:28:15;;;;;;;16.75;2.10;;;27.50;54.50;;;;;;6101266;23;20073;-76
2022/06/28 16:30:41;;;;;;;10.60;2.25;;;27.40;55.40;;;;;;6101627;23;20413;-76
2022/06/28 16:33:11;;;;;;;9.68;1.95;;;27.90;55.60;;;;;;6100712;23;20014;-76
2022/06/28 16:35:37;;;;;;;8.85;1.83;;;28.00;54.10;;;;;;6100804;23;20021;-76
2022/06/28 16:38:03;;;;;;;11.48;2.38;;;28.30;53.80;;;;;;6100905;23;20006;-77
2022/06/28 16:40:30;;;;;;;10.48;2.42;;;28.50;53.00;;;;;;6101479;23;20013;-76
2022/06/28 16:42:56;;;;;;;10.15;2.28;;;28.50;52.80;;;;;;6101466;23;20457;-75
2022/06/28 16:45:22;;;;;;;12.40;2.20;;;28.70;51.90;;;;;;6127127;23;20014;-77
2022/06/28 16:47:48;;;;;;;10.23;1.77;;;28.80;52.20;;;;;;6125107;23;20037;-76
2022/06/28 16:50:16;;;;;;;9.40;2.28;;;28.80;51.50;;;;;;6125626;23;20014;-76
2022/06/28 16:52:42;;;;;;;11.52;2.15;;;28.60;50.20;;;;;;6126004;23;20025;-76
2022/06/28 16:55:09;;;;;;;9.20;1.85;;;28.80;49.00;;;;;;6100756;23;20333;-76
2022/06/28 16:57:36;;;;;;;10.13;1.90;;;28.30;50.00;;;;;;6123993;23;20025;-76
2022/06/28 17:00:03;;;;;;;15.48;2.30;;;27.80;50.80;;;;;;6124764;23;20079;-76
2022/06/28 17:02:31;;;;;;;9.90;1.98;;;28.10;50.60;;;;;;6101479;23;20361;-76
2022/06/28 17:04:57;;;;;;;8.82;1.90;;;27.90;51.00;;;;;;6100948;23;20064;-76
2022/06/28 17:07:25;;;;;;;13.88;2.70;;;27.80;51.40;;;;;;6100228;23;20425;-76
2022/06/28 17:09:58;;;;;;;8.35;1.88;;;27.30;52.30;;;;;;6125691;23;20014;-75
2022/06/28 17:12:28;;;;;;;9.48;2.17;;;26.90;52.30;;;;;;6125956;23;20018;-76
2022/06/28 17:14:54;;;;;;;12.55;2.03;;;26.20;54.20;;;;;;6127257;23;20439;-76
2022/06/28 17:17:20;;;;;;;11.95;2.55;;;25.50;54.70;;;;;;6112281;23;20013;-76
2022/06/28 17:19:47;;;;;;;9.18;1.85;;;24.90;56.50;;;;;;6108437;23;20090;-75
2022/06/28 17:22:15;;;;;;;12.50;2.08;;;24.50;57.60;;;;;;6101036;23;20056;-75
2022/06/28 17:24:44;;;;;;;9.13;1.45;;;24.20;59.40;;;;;;6125427;23;20080;-77
2022/06/28 17:27:10;;;;;;;12.65;1.80;;;24.10;60.10;;;;;;6101032;23;20102;-76
2022/06/28 17:29:37;;;;;;;10.80;1.48;;;24.00;59.60;;;;;;6125404;23;20077;-76
2022/06/28 17:32:04;;;;;;;10.77;1.60;;;23.90;60.50;;;;;;6101433;23;20484;-76
2022/06/28 17:34:29;;;;;;;13.20;1.90;;;23.80;61.70;;;;;;6101263;23;20010;-76
2022/06/28 17:36:58;;;;;;;10.27;1.98;;;23.70;62.00;;;;;;6124986;23;20539;-76
2022/06/28 17:39:26;;;;;;;8.00;1.90;;;23.60;62.20;;;;;;6125379;23;20060;-76
2022/06/28 17:42:31;;;;;;;9.60;1.98;;;23.40;63.10;;;;;;6125300;23;20010;-76
2022/06/28 17:53:10;;;;;;;;;;;;;;;;;;;;;
2022/06/28 17:57:03;;;;;;;47.65;5.05;;;22.70;66.40;;;;;;6126163;23;20014;-78
2022/06/28 18:14:28;;;;;;;9.93;2.10;;;22.00;69.90;;;;;;5874596;24;20027;-77
2022/06/28 18:16:57;;;;;;;10.13;2.00;;;21.90;68.20;;;;;;5874437;24;20014;-76
2022/06/28 18:19:23;;;;;;;13.60;2.00;;;21.90;68.30;;;;;;5932092;23;20015;-77
2022/06/28 18:21:48;;;;;;;;;;;21.80;68.80;;;;;;5986176;23;20059;-76
2022/06/28 18:24:19;;;;;;;14.00;2.33;;;21.80;71.50;;;;;;5994826;23;20266;-76
2022/06/28 18:26:45;;;;;;;10.23;2.20;;;21.70;69.80;;;;;;6041178;23;20010;-77
2022/06/28 18:29:16;;;;;;;;;;;21.60;70.40;;;;;;6041315;23;20011;-76
2022/06/28 18:31:42;;;;;;;9.10;2.08;;;21.60;74.80;;;;;;6041798;23;19914;-77
2022/06/28 18:34:08;;;;;;;;;;;21.40;74.30;;;;;;6042428;23;20035;-76
2022/06/28 18:36:34;;;;;;;9.07;1.75;;;21.40;79.80;;;;;;6041370;23;19909;-77
2022/06/28 18:39:00;;;;;;;;;;;21.20;77.60;;;;;;6135772;23;20017;-77
2022/06/28 18:41:31;;;;;;;12.77;2.45;;;21.10;82.40;;;;;;6123072;23;19936;-77
2022/06/28 18:44:04;;;;;;;9.25;2.33;;;21.00;80.00;;;;;;6104632;23;20093;-76
2022/06/28 18:46:30;;;;;;;8.77;2.88;;;21.00;81.90;;;;;;6125376;23;20014;-77
2022/06/28 18:48:56;;;;;;;;;;;20.80;82.90;;;;;;6124852;23;20017;-76
2022/06/28 18:51:21;;;;;;;11.15;2.80;;;20.80;85.60;;;;;;6124517;23;19919;-76
2022/06/28 18:53:47;;;;;;;;;;;20.60;82.90;;;;;;6101065;23;20460;-77
2022/06/28 18:56:13;;;;;;;11.55;2.88;;;20.60;85.80;;;;;;6125226;23;19920;-77
2022/06/28 18:58:39;;;;;;;;;;;20.30;85.20;;;;;;6101160;23;20012;-78
2022/06/28 19:01:05;;;;;;;10.10;2.38;;;20.30;88.90;;;;;;6125072;23;20228;-76
2022/06/28 19:03:30;;;;;;;8.80;1.85;;;20.10;86.20;;;;;;6101063;23;20013;-77
2022/06/28 19:05:56;;;;;;;;;;;20.10;87.40;;;;;;6101118;23;20437;-77
2022/06/28 19:08:26;;;;;;;8.80;2.00;;;20.00;89.90;;;;;;6100667;23;19909;-78
2022/06/28 19:10:52;;;;;;;12.73;2.13;;;19.90;90.10;;;;;;6100204;23;20014;-77
2022/06/28 19:13:18;;;;;;;15.45;3.53;;;19.80;89.80;;;;;;6101081;23;20447;-78
2022/06/28 19:15:44;;;;;;;9.68;2.30;;;19.70;90.30;;;;;;6100881;23;20072;-77
2022/06/28 19:18:10;;;;;;;12.35;2.30;;;19.60;90.30;;;;;;6125378;23;20010;-77
2022/06/28 19:20:35;;;;;;;;;;;19.60;90.50;;;;;;6101809;23;20048;-77
2022/06/28 19:23:01;;;;;;;12.95;2.63;;;19.40;92.30;;;;;;6127046;23;19936;-77
2022/06/28 19:25:27;;;;;;;;;;;19.40;91.20;;;;;;6103110;23;20072;-77
2022/06/28 19:27:52;;;;;;;7.88;2.00;;;19.20;93.20;;;;;;6102258;23;19913;-77
2022/06/28 19:30:18;;;;;;;8.77;1.77;;;19.20;91.80;;;;;;6126499;23;20072;-77
2022/06/28 19:32:45;;;;;;;11.10;2.88;;;19.00;92.10;;;;;;6102166;23;20348;-77
2022/06/28 19:35:13;;;;;;;10.45;2.28;;;18.90;93.80;;;;;;6102483;23;20041;-77
2022/06/28 19:37:40;;;;;;;13.48;1.90;;;18.90;92.90;;;;;;6102628;23;20092;-76
2022/06/28 19:40:08;;;;;;;12.70;2.40;;;18.80;93.00;;;;;;6126100;23;20076;-76
2022/06/28 19:42:35;;;;;;;6.22;2.33;;;18.70;93.60;;;;;;6102159;23;20010;-72
2022/06/28 19:45:02;;;;;;;9.40;2.40;;;18.60;93.90;;;;;;6126604;23;20014;-76
2022/06/28 20:01:20;;;;;;;12.45;2.92;;;18.00;95.60;;;;;;6084559;23;20049;-74
2022/06/28 20:19:48;;;;;;;17.75;9.85;;;17.50;97.60;;;;;;6126971;23;20046;-70
2022/06/28 20:22:24;;;;;;;15.50;5.93;;;17.40;97.20;;;;;;6077971;23;20025;-73
2022/06/28 21:15:36;;;;;;;9.98;3.30;;;16.40;99.90;;;;;;6126819;23;20008;-68
2022/06/28 21:18:05;;;;;;;7.10;2.78;;;16.20;99.90;;;;;;6071212;23;20053;-71
2022/06/28 21:20:37;;;;;;;8.02;3.17;;;16.20;99.90;;;;;;6071697;23;20509;-71
2022/06/28 21:23:27;;;;;;;15.65;3.50;;;16.10;99.90;;;;;;6037117;23;20034;-68
2022/06/28 21:25:52;;;;;;;15.80;4.45;;;16.10;99.90;;;;;;6013919;23;20015;-70
2022/06/28 21:28:18;;;;;;;10.88;3.55;;;16.00;99.90;;;;;;6037235;23;20082;-71
2022/06/28 21:50:02;;;;;;;14.35;3.85;;;15.80;99.90;;;;;;5842718;24;20012;-70
2022/06/28 21:57:46;;;;;;;11.68;4.25;;;15.70;99.90;;;;;;5952311;24;20092;-70
2022/06/28 22:01:23;;;;;;;8.73;4.15;;;15.80;99.90;;;;;;5843011;24;20148;-71
2022/06/28 22:16:05;;;;;;;10.02;4.57;;;15.50;99.90;;;;;;5781874;24;20392;-72
2022/06/28 22:19:23;;;;;;;13.32;5.60;;;15.50;99.90;;;;;;5841714;24;20082;-72
2022/06/28 22:22:42;;;;;;;11.85;4.80;;;15.50;99.90;;;;;;5920037;24;20073;-72
2022/06/28 22:26:21;;;;;;;6.85;4.03;;;15.50;99.90;;;;;;5928433;24;20012;-72
2022/06/28 22:33:30;;;;;;;;;;;;;;;;;;;;;
2022/06/28 22:37:40;;;;;;;;;;;;;;;;;;;;;
2022/06/28 22:41:03;;;;;;;8.30;3.85;;;15.50;99.90;;;;;;5841601;24;20097;-72
2022/06/28 22:44:28;;;;;;;11.55;3.97;;;15.60;99.90;;;;;;5821359;24;20015;-72
2022/06/28 22:47:45;;;;;;;12.88;3.70;;;15.50;99.90;;;;;;5867207;24;20363;-72
2022/06/28 22:51:36;;;;;;;10.18;4.30;;;15.50;99.90;;;;;;5842602;24;20025;-71
2022/06/28 22:54:45;;;;;;;14.43;5.10;;;15.50;99.90;;;;;;5845240;24;20014;-71
2022/06/28 23:05:20;;;;;;;;;;;;;;;;;;;;;
2022/06/28 23:09:02;;;;;;;10.57;4.13;;;15.60;99.90;;;;;;5803462;24;20019;-73
2022/06/28 23:20:03;;;;;;;10.18;3.55;;;15.90;99.90;;;;;;5912203;24;20021;-72
2022/06/28 23:30:16;;;;;;;;;;;;;;;;;;;;;
2022/06/28 23:40:20;;;;;;;12.40;3.90;;;16.10;99.90;;;;;;5871024;24;20018;-71
2022/06/28 23:43:49;;;;;;;10.00;4.10;;;16.10;99.90;;;;;;5770007;24;20018;-71
2022/06/28 23:47:32;;;;;;;9.52;4.03;;;16.10;99.90;;;;;;5818412;24;20085;-72
2022/06/28 23:53:07;;;;;;;8.10;4.15;;;16.10;99.90;;;;;;5796665;24;20023;-71
